sensor_id;sensor_type;location;lat;lon;timestamp;pressure;altitude;pressure_sealevel;temperature;humidity
25156;BME280;21913;52.456;13.634;2023-03-03T00:05:12;101032.22;;;11.80;55.97
25156;BME280;21913;52.456;13.634;2023-03-03T00:10:14;101035.63;;;11.79;56.02
25156;BME280;21913;52.456;13.634;2023-03-03T00:15:18;101036.50;;;11.78;55.90
25156;BME280;21913;52.456;13.634;2023-03-03T00:20:40;101032.16;;;11.77;56.04
25156;BME280;21913;52.456;13.634;2023-03-03T00:25:45;101029.56;;;11.76;55.87
25156;BME280;21913;52.456;13.634;2023-03-03T00:30:51;101032.16;;;11.76;56.07
25156;BME280;21913;52.456;13.634;2023-03-03T00:35:55;101036.44;;;11.74;55.91
25156;BME280;21913;52.456;13.634;2023-03-03T00:40:57;101029.53;;;11.73;56.02
25156;BME280;21913;52.456;13.634;2023-03-03T00:45:59;101037.28;;;11.71;55.89
25156;BME280;21913;52.456;13.634;2023-03-03T00:51:10;101040.75;;;11.70;55.92
25156;BME280;21913;52.456;13.634;2023-03-03T00:56:15;101049.38;;;11.69;55.88
25156;BME280;21913;52.456;13.634;2023-03-03T01:01:17;101043.28;;;11.69;55.93
25156;BME280;21913;52.456;13.634;2023-03-03T01:06:22;101031.19;;;11.68;56.07
25156;BME280;21913;52.456;13.634;2023-03-03T01:11:25;101031.19;;;11.66;56.07
25156;BME280;21913;52.456;13.634;2023-03-03T01:16:28;101036.34;;;11.65;56.04
25156;BME280;21913;52.456;13.634;2023-03-03T01:21:30;101045.00;;;11.64;56.10
25156;BME280;21913;52.456;13.634;2023-03-03T01:26:31;101031.13;;;11.62;56.09
25156;BME280;21913;52.456;13.634;2023-03-03T01:31:33;101024.22;;;11.61;56.12
25156;BME280;21913;52.456;13.634;2023-03-03T01:36:35;101012.09;;;11.59;56.18
25156;BME280;21913;52.456;13.634;2023-03-03T01:41:36;101015.56;;;11.58;56.06
25156;BME280;21913;52.456;13.634;2023-03-03T01:46:47;101031.09;;;11.58;56.15
25156;BME280;21913;52.456;13.634;2023-03-03T01:51:57;101034.53;;;11.56;56.17
25156;BME280;21913;52.456;13.634;2023-03-03T01:57:03;101024.16;;;11.54;56.19
25156;BME280;21913;52.456;13.634;2023-03-03T02:02:07;101031.06;;;11.54;56.13
25156;BME280;21913;52.456;13.634;2023-03-03T02:07:09;101021.50;;;11.51;56.18
25156;BME280;21913;52.456;13.634;2023-03-03T02:12:14;101024.09;;;11.51;56.18
25156;BME280;21913;52.456;13.634;2023-03-03T02:17:18;101027.53;;;11.50;56.16
25156;BME280;21913;52.456;13.634;2023-03-03T02:22:29;101032.72;;;11.50;56.36
25156;BME280;21913;52.456;13.634;2023-03-03T02:27:33;101030.97;;;11.48;56.29
25156;BME280;21913;52.456;13.634;2023-03-03T02:32:35;101041.31;;;11.46;56.19
25156;BME280;21913;52.456;13.634;2023-03-03T02:37:38;101029.22;;;11.45;56.30
25156;BME280;21913;52.456;13.634;2023-03-03T02:42:39;101030.06;;;11.46;56.32
25156;BME280;21913;52.456;13.634;2023-03-03T02:47:48;101026.59;;;11.44;56.45
25156;BME280;21913;52.456;13.634;2023-03-03T02:52:51;101027.47;;;11.43;56.37
25156;BME280;21913;52.456;13.634;2023-03-03T02:57:53;101022.22;;;11.41;56.40
25156;BME280;21913;52.456;13.634;2023-03-03T03:02:55;101028.28;;;11.40;56.51
25156;BME280;21913;52.456;13.634;2023-03-03T03:07:57;101019.63;;;11.40;56.36
25156;BME280;21913;52.456;13.634;2023-03-03T03:12:59;101046.41;;;11.40;56.44
25156;BME280;21913;52.456;13.634;2023-03-03T03:18:01;101040.34;;;11.38;56.30
25156;BME280;21913;52.456;13.634;2023-03-03T03:23:02;101038.63;;;11.37;56.34
25156;BME280;21913;52.456;13.634;2023-03-03T03:28:04;101036.84;;;11.36;56.50
25156;BME280;21913;52.456;13.634;2023-03-03T03:33:07;101039.44;;;11.36;56.32
25156;BME280;21913;52.456;13.634;2023-03-03T03:38:08;101033.38;;;11.34;56.49
25156;BME280;21913;52.456;13.634;2023-03-03T03:43:10;101040.28;;;11.33;56.48
25156;BME280;21913;52.456;13.634;2023-03-03T03:48:12;101041.16;;;11.32;56.49
25156;BME280;21913;52.456;13.634;2023-03-03T03:53:15;101041.16;;;11.32;56.34
25156;BME280;21913;52.456;13.634;2023-03-03T03:58:18;101048.06;;;11.32;56.50
25156;BME280;21913;52.456;13.634;2023-03-03T04:03:26;101044.56;;;11.30;56.43
25156;BME280;21913;52.456;13.634;2023-03-03T04:08:28;101035.06;;;11.30;56.60
25156;BME280;21913;52.456;13.634;2023-03-03T04:13:30;101037.63;;;11.29;56.51
25156;BME280;21913;52.456;13.634;2023-03-03T04:18:33;101026.41;;;11.28;56.59
25156;BME280;21913;52.456;13.634;2023-03-03T04:23:36;101023.81;;;11.28;56.63
25156;BME280;21913;52.456;13.634;2023-03-03T04:28:38;101039.34;;;11.27;56.61
25156;BME280;21913;52.456;13.634;2023-03-03T04:33:41;101048.84;;;11.26;56.61
25156;BME280;21913;52.456;13.634;2023-03-03T04:38:43;101041.94;;;11.27;56.52
25156;BME280;21913;52.456;13.634;2023-03-03T04:43:45;101048.81;;;11.25;56.65
25156;BME280;21913;52.456;13.634;2023-03-03T04:48:47;101058.28;;;11.24;56.62
25156;BME280;21913;52.456;13.634;2023-03-03T04:53:50;101058.28;;;11.23;56.66
25156;BME280;21913;52.456;13.634;2023-03-03T04:58:52;101060.03;;;11.24;56.66
25156;BME280;21913;52.456;13.634;2023-03-03T05:03:55;101046.19;;;11.22;56.66
25156;BME280;21913;52.456;13.634;2023-03-03T05:08:57;101050.50;;;11.21;56.66
25156;BME280;21913;52.456;13.634;2023-03-03T05:13:58;101047.03;;;11.21;56.60
25156;BME280;21913;52.456;13.634;2023-03-03T05:19:00;101053.06;;;11.20;56.71
25156;BME280;21913;52.456;13.634;2023-03-03T05:24:02;101062.53;;;11.19;56.70
25156;BME280;21913;52.456;13.634;2023-03-03T05:29:04;101054.78;;;11.19;56.67
25156;BME280;21913;52.456;13.634;2023-03-03T05:34:05;101044.41;;;11.18;56.83
25156;BME280;21913;52.456;13.634;2023-03-03T05:39:07;101051.31;;;11.17;56.59
25156;BME280;21913;52.456;13.634;2023-03-03T05:44:09;101057.34;;;11.18;56.71
25156;BME280;21913;52.456;13.634;2023-03-03T05:49:10;101058.22;;;11.17;56.79
25156;BME280;21913;52.456;13.634;2023-03-03T05:54:12;101072.00;;;11.16;56.76
25156;BME280;21913;52.456;13.634;2023-03-03T05:59:14;101071.16;;;11.15;56.91
25156;BME280;21913;52.456;13.634;2023-03-03T06:04:15;101077.19;;;11.16;56.68
25156;BME280;21913;52.456;13.634;2023-03-03T06:09:17;101074.53;;;11.13;56.95
25156;BME280;21913;52.456;13.634;2023-03-03T06:14:19;101084.03;;;11.12;56.83
25156;BME280;21913;52.456;13.634;2023-03-03T06:19:21;101090.94;;;11.12;56.85
25156;BME280;21913;52.456;13.634;2023-03-03T06:24:22;101090.94;;;11.12;57.00
25156;BME280;21913;52.456;13.634;2023-03-03T06:29:25;101084.03;;;11.11;56.73
25156;BME280;21913;52.456;13.634;2023-03-03T06:34:26;101094.38;;;11.11;56.89
25156;BME280;21913;52.456;13.634;2023-03-03T06:39:28;101097.84;;;11.10;56.90
25156;BME280;21913;52.456;13.634;2023-03-03T06:44:30;101094.38;;;11.09;56.89
25156;BME280;21913;52.456;13.634;2023-03-03T06:49:31;101106.41;;;11.09;57.01
25156;BME280;21913;52.456;13.634;2023-03-03T06:54:33;101099.50;;;11.07;56.90
25156;BME280;21913;52.456;13.634;2023-03-03T06:59:35;101100.38;;;11.06;56.79
25156;BME280;21913;52.456;13.634;2023-03-03T07:04:36;101109.88;;;11.07;56.96
25156;BME280;21913;52.456;13.634;2023-03-03T07:09:38;101118.50;;;11.06;56.85
25156;BME280;21913;52.456;13.634;2023-03-03T07:14:45;101128.00;;;11.07;56.95
25156;BME280;21913;52.456;13.634;2023-03-03T07:19:47;101143.53;;;11.06;56.97
25156;BME280;21913;52.456;13.634;2023-03-03T07:24:51;101145.25;;;11.05;57.02
25156;BME280;21913;52.456;13.634;2023-03-03T07:30:12;101144.38;;;11.05;56.91
25156;BME280;21913;52.456;13.634;2023-03-03T07:35:38;101146.09;;;11.04;56.88
25156;BME280;21913;52.456;13.634;2023-03-03T07:40:47;101151.28;;;11.04;56.94
25156;BME280;21913;52.456;13.634;2023-03-03T07:45:49;101164.19;;;11.03;57.00
25156;BME280;21913;52.456;13.634;2023-03-03T07:50:51;101157.28;;;11.03;57.09
25156;BME280;21913;52.456;13.634;2023-03-03T07:55:53;101165.91;;;11.02;56.99
25156;BME280;21913;52.456;13.634;2023-03-03T08:17:30;101186.59;;;11.01;57.13
25156;BME280;21913;52.456;13.634;2023-03-03T08:22:35;101190.91;;;11.00;57.25
25156;BME280;21913;52.456;13.634;2023-03-03T08:27:37;101195.22;;;11.00;57.07
25156;BME280;21913;52.456;13.634;2023-03-03T08:32:39;101200.41;;;11.00;57.11
25156;BME280;21913;52.456;13.634;2023-03-03T08:37:40;101193.47;;;10.99;57.09
25156;BME280;21913;52.456;13.634;2023-03-03T08:42:42;101191.75;;;10.99;56.91
25156;BME280;21913;52.456;13.634;2023-03-03T08:47:43;101193.44;;;10.97;57.05
25156;BME280;21913;52.456;13.634;2023-03-03T08:52:46;101191.72;;;10.98;57.11
25156;BME280;21913;52.456;13.634;2023-03-03T08:57:48;101194.31;;;10.98;57.24
25156;BME280;21913;52.456;13.634;2023-03-03T09:02:50;101199.47;;;10.98;57.15
25156;BME280;21913;52.456;13.634;2023-03-03T09:07:52;101214.16;;;10.97;57.22
25156;BME280;21913;52.456;13.634;2023-03-03T09:12:55;101204.66;;;10.96;57.19
25156;BME280;21913;52.456;13.634;2023-03-03T09:18:01;101213.28;;;10.97;57.13
25156;BME280;21913;52.456;13.634;2023-03-03T09:23:30;101215.88;;;10.97;57.21
25156;BME280;21913;52.456;13.634;2023-03-03T09:28:33;101206.38;;;10.96;57.13
25156;BME280;21913;52.456;13.634;2023-03-03T09:38:44;101221.03;;;10.95;57.35
25156;BME280;21913;52.456;13.634;2023-03-03T09:44:05;101216.72;;;10.96;57.17
25156;BME280;21913;52.456;13.634;2023-03-03T09:49:33;101218.44;;;10.95;57.33
25156;BME280;21913;52.456;13.634;2023-03-03T09:54:46;101230.53;;;10.96;57.26
25156;BME280;21913;52.456;13.634;2023-03-03T10:10:43;101240.00;;;10.93;57.35
25156;BME280;21913;52.456;13.634;2023-03-03T10:21:22;101243.44;;;10.93;57.43
25156;BME280;21913;52.456;13.634;2023-03-03T10:26:58;101245.19;;;10.94;57.33
25156;BME280;21913;52.456;13.634;2023-03-03T10:43:19;101257.28;;;10.94;57.48
25156;BME280;21913;52.456;13.634;2023-03-03T10:48:43;101260.72;;;10.93;57.55
25156;BME280;21913;52.456;13.634;2023-03-03T11:25:35;101249.44;;;10.92;57.44
25156;BME280;21913;52.456;13.634;2023-03-03T11:46:48;101237.34;;;10.91;57.61
25156;BME280;21913;52.456;13.634;2023-03-03T11:52:24;101231.31;;;10.92;57.32
25156;BME280;21913;52.456;13.634;2023-03-03T11:57:25;101231.28;;;10.89;57.54
25156;BME280;21913;52.456;13.634;2023-03-03T12:07:53;101216.69;;;10.93;57.54
25156;BME280;21913;52.456;13.634;2023-03-03T12:13:00;101215.78;;;10.91;57.55
25156;BME280;21913;52.456;13.634;2023-03-03T12:18:29;101214.06;;;10.91;57.73
25156;BME280;21913;52.456;13.634;2023-03-03T12:28:56;101193.34;;;10.91;57.64
25156;BME280;21913;52.456;13.634;2023-03-03T12:34:23;101195.94;;;10.91;57.75
25156;BME280;21913;52.456;13.634;2023-03-03T13:06:34;101184.69;;;10.91;57.73
25156;BME280;21913;52.456;13.634;2023-03-03T13:21:59;101172.59;;;10.90;57.84
25156;BME280;21913;52.456;13.634;2023-03-03T13:27:24;101175.19;;;10.90;57.76
25156;BME280;21913;52.456;13.634;2023-03-03T13:32:37;101178.66;;;10.90;57.88
25156;BME280;21913;52.456;13.634;2023-03-03T13:37:46;101173.47;;;10.90;57.91
25156;BME280;21913;52.456;13.634;2023-03-03T13:42:59;101161.38;;;10.89;57.74
25156;BME280;21913;52.456;13.634;2023-03-03T13:58:43;101154.47;;;10.90;57.96
25156;BME280;21913;52.456;13.634;2023-03-03T14:04:05;101156.19;;;10.89;57.83
25156;BME280;21913;52.456;13.634;2023-03-03T14:09:34;101147.56;;;10.89;57.97
25156;BME280;21913;52.456;13.634;2023-03-03T14:20:27;101136.34;;;10.90;57.79
25156;BME280;21913;52.456;13.634;2023-03-03T14:30:56;101129.44;;;10.89;57.95
25156;BME280;21913;52.456;13.634;2023-03-03T14:41:15;101119.94;;;10.89;57.94
25156;BME280;21913;52.456;13.634;2023-03-03T14:46:29;101122.53;;;10.89;57.85
25156;BME280;21913;52.456;13.634;2023-03-03T15:07:37;101117.34;;;10.88;58.11
25156;BME280;21913;52.456;13.634;2023-03-03T15:12:41;101107.00;;;10.88;58.03
25156;BME280;21913;52.456;13.634;2023-03-03T15:23:05;101112.16;;;10.88;58.06
25156;BME280;21913;52.456;13.634;2023-03-03T15:28:21;101109.59;;;10.89;58.04
25156;BME280;21913;52.456;13.634;2023-03-03T15:33:43;101103.56;;;10.89;58.09
25156;BME280;21913;52.456;13.634;2023-03-03T16:05:32;101084.50;;;10.87;58.18
25156;BME280;21913;52.456;13.634;2023-03-03T16:16:28;101079.34;;;10.87;58.16
25156;BME280;21913;52.456;13.634;2023-03-03T16:32:18;101072.44;;;10.87;58.30
25156;BME280;21913;52.456;13.634;2023-03-03T16:42:31;101070.69;;;10.86;58.19
25156;BME280;21913;52.456;13.634;2023-03-03T16:53:04;101077.59;;;10.86;58.45
25156;BME280;21913;52.456;13.634;2023-03-03T16:58:29;101068.09;;;10.86;58.38
25156;BME280;21913;52.456;13.634;2023-03-03T17:14:54;101082.78;;;10.86;58.46
25156;BME280;21913;52.456;13.634;2023-03-03T17:20:10;101081.06;;;10.86;58.43
25156;BME280;21913;52.456;13.634;2023-03-03T17:30:47;101092.25;;;10.85;58.51
25156;BME280;21913;52.456;13.634;2023-03-03T17:46:36;101110.38;;;10.85;58.44
25156;BME280;21913;52.456;13.634;2023-03-03T17:56:58;101119.00;;;10.83;58.31
25156;BME280;21913;52.456;13.634;2023-03-03T18:22:54;101128.50;;;10.84;58.50
25156;BME280;21913;52.456;13.634;2023-03-03T18:33:06;101127.63;;;10.83;58.49
25156;BME280;21913;52.456;13.634;2023-03-03T18:54:26;101137.13;;;10.84;58.42
25156;BME280;21913;52.456;13.634;2023-03-03T19:05:22;101143.19;;;10.85;58.48
25156;BME280;21913;52.456;13.634;2023-03-03T19:10:00;101141.44;;;10.84;58.47
25156;BME280;21913;52.456;13.634;2023-03-03T19:15:33;101139.63;;;10.78;57.71
25156;BME280;21913;52.456;13.634;2023-03-03T19:20:42;101139.09;;;10.49;54.83
25156;BME280;21913;52.456;13.634;2023-03-03T19:31:51;101134.97;;;10.59;55.02
25156;BME280;21913;52.456;13.634;2023-03-03T19:42:32;101138.59;;;10.70;55.61
25156;BME280;21913;52.456;13.634;2023-03-03T19:47:52;101137.81;;;10.72;55.54
25156;BME280;21913;52.456;13.634;2023-03-03T19:53:03;101147.31;;;10.73;56.03
25156;BME280;21913;52.456;13.634;2023-03-03T19:58:26;101143.88;;;10.76;55.97
25156;BME280;21913;52.456;13.634;2023-03-03T20:09:02;101142.22;;;10.78;56.28
25156;BME280;21913;52.456;13.634;2023-03-03T20:14:18;101137.91;;;10.78;56.19
25156;BME280;21913;52.456;13.634;2023-03-03T20:30:12;101138.78;;;10.79;56.45
25156;BME280;21913;52.456;13.634;2023-03-03T20:36:44;101143.94;;;10.79;56.66
25156;BME280;21913;52.456;13.634;2023-03-03T20:57:26;101138.78;;;10.79;56.96
25156;BME280;21913;52.456;13.634;2023-03-03T21:08:04;101137.06;;;10.79;57.03
25156;BME280;21913;52.456;13.634;2023-03-03T21:13:27;101138.78;;;10.80;56.92
25156;BME280;21913;52.456;13.634;2023-03-03T21:18:34;101131.88;;;10.79;57.14
25156;BME280;21913;52.456;13.634;2023-03-03T21:23:36;101130.16;;;10.80;57.19
25156;BME280;21913;52.456;13.634;2023-03-03T21:28:38;101131.88;;;10.79;57.19
25156;BME280;21913;52.456;13.634;2023-03-03T21:33:58;101125.81;;;10.79;57.17
25156;BME280;21913;52.456;13.634;2023-03-03T21:39:00;101126.72;;;10.81;57.22
25156;BME280;21913;52.456;13.634;2023-03-03T21:44:32;101120.66;;;10.79;57.24
25156;BME280;21913;52.456;13.634;2023-03-03T21:49:34;101124.97;;;10.80;57.30
25156;BME280;21913;52.456;13.634;2023-03-03T21:54:37;101128.44;;;10.80;57.19
25156;BME280;21913;52.456;13.634;2023-03-03T21:59:39;101125.84;;;10.80;57.33
25156;BME280;21913;52.456;13.634;2023-03-03T22:04:41;101122.38;;;10.80;57.36
25156;BME280;21913;52.456;13.634;2023-03-03T22:09:43;101124.97;;;10.80;57.35
25156;BME280;21913;52.456;13.634;2023-03-03T22:14:45;101119.78;;;10.80;57.38
25156;BME280;21913;52.456;13.634;2023-03-03T22:19:46;101124.13;;;10.81;57.41
25156;BME280;21913;52.456;13.634;2023-03-03T22:24:48;101123.25;;;10.79;57.33
25156;BME280;21913;52.456;13.634;2023-03-03T22:29:49;101131.88;;;10.79;57.33
25156;BME280;21913;52.456;13.634;2023-03-03T22:34:51;101124.97;;;10.80;57.41
25156;BME280;21913;52.456;13.634;2023-03-03T22:39:53;101132.75;;;10.80;57.35
25156;BME280;21913;52.456;13.634;2023-03-03T22:44:54;101124.09;;;10.79;57.61
25156;BME280;21913;52.456;13.634;2023-03-03T22:49:56;101130.16;;;10.80;57.56
25156;BME280;21913;52.456;13.634;2023-03-03T22:54:58;101112.03;;;10.80;57.52
25156;BME280;21913;52.456;13.634;2023-03-03T22:59:59;101114.63;;;10.80;57.47
25156;BME280;21913;52.456;13.634;2023-03-03T23:05:01;101109.44;;;10.80;57.48
25156;BME280;21913;52.456;13.634;2023-03-03T23:10:04;101118.06;;;10.80;57.55
25156;BME280;21913;52.456;13.634;2023-03-03T23:15:07;101114.63;;;10.80;57.67
25156;BME280;21913;52.456;13.634;2023-03-03T23:20:11;101111.19;;;10.81;57.40
25156;BME280;21913;52.456;13.634;2023-03-03T23:25:13;101103.41;;;10.81;57.70
25156;BME280;21913;52.456;13.634;2023-03-03T23:30:16;101096.50;;;10.80;57.66
25156;BME280;21913;52.456;13.634;2023-03-03T23:35:18;101101.66;;;10.80;57.72
25156;BME280;21913;52.456;13.634;2023-03-03T23:40:20;101097.38;;;10.80;57.69
25156;BME280;21913;52.456;13.634;2023-03-03T23:45:21;101109.47;;;10.82;57.73
25156;BME280;21913;52.456;13.634;2023-03-03T23:50:23;101103.41;;;10.81;57.75
25156;BME280;21913;52.456;13.634;2023-03-03T23:55:25;101088.72;;;10.80;57.61
